Time;durP1;ratioP1;P1;durP2;ratioP2;P2;SDS_P1;SDS_P2;PMS_P1;PMS_P2;Temp;Humidity;BMP_temperature;BMP_pressure;BME280_temperature;BME280_humidity;BME280_pressure;Samples;Min_cycle;Max_cycle;Signal;HPM_P1;HPM_P2
2022/04/26 03:38:35;;;;;;;33.17;14.38;;;11.40;99.90;;;;;;6151871;29;20059;-86
2022/04/26 03:45:45;;;;;;;43.90;16.02;;;11.30;99.90;;;;;;6087782;29;20057;-85
2022/04/26 03:52:58;;;;;;;;;;;;;;;;;;;;;
2022/04/26 03:56:06;;;;;;;41.83;17.77;;;11.50;99.90;;;;;;6150689;28;20047;-83
2022/04/26 03:59:41;;;;;;;;;;;;;;;;;;;;;
2022/04/26 04:15:28;;;;;;;42.35;17.00;;;11.90;99.90;;;;;;5920486;29;20061;-84
2022/04/26 04:31:09;;;;;;;32.20;14.98;;;11.70;99.90;;;;;;5953285;29;20521;-84
2022/04/26 04:50:17;;;;;;;30.20;14.75;;;11.70;99.90;;;;;;7757859;22;1056960;-82
2022/04/26 04:53:28;;;;;;;29.48;13.85;;;11.60;99.90;;;;;;7729509;23;20025;-84
2022/04/26 04:56:37;;;;;;;29.48;14.60;;;11.60;99.90;;;;;;7731001;23;20118;-82
2022/04/26 05:00:25;;;;;;;34.15;15.13;;;11.60;99.90;;;;;;7735583;22;20023;-82
2022/04/26 05:08:11;;;;;;;32.92;15.85;;;11.90;99.90;;;;;;7601100;23;20012;-83
2022/04/26 05:15:18;;;;;;;30.77;15.88;;;12.00;99.90;;;;;;7632974;23;20097;-84
2022/04/26 05:18:41;;;;;;;34.30;15.48;;;12.00;99.90;;;;;;7628394;23;20018;-84
2022/04/26 05:21:43;;;;;;;35.30;14.75;;;12.10;99.90;;;;;;7616533;23;20044;-83
2022/04/26 05:25:08;;;;;;;38.40;17.17;;;12.10;99.90;;;;;;7623571;23;20045;-83
2022/04/26 05:28:12;;;;;;;49.97;18.08;;;12.20;99.90;;;;;;7588755;23;20022;-83
2022/04/26 05:31:16;;;;;;;32.80;15.70;;;12.30;99.90;;;;;;7636096;23;20032;-82
2022/04/26 05:34:18;;;;;;;41.63;20.20;;;12.40;99.90;;;;;;7740469;22;20020;-84
2022/04/26 05:37:20;;;;;;;45.80;19.20;;;12.40;99.90;;;;;;7729295;23;20024;-83
2022/04/26 05:40:23;;;;;;;45.50;18.70;;;12.50;99.90;;;;;;7732372;23;20028;-84
2022/04/26 05:43:25;;;;;;;49.25;19.83;;;12.50;99.90;;;;;;7727323;23;20082;-84
2022/04/26 05:46:27;;;;;;;47.83;21.13;;;12.60;99.90;;;;;;7726886;23;20024;-84
2022/04/26 05:49:30;;;;;;;54.70;21.02;;;12.50;99.90;;;;;;7722961;23;20020;-83
2022/04/26 05:52:32;;;;;;;52.95;21.98;;;12.50;99.90;;;;;;7703765;23;20052;-84
2022/04/26 05:55:35;;;;;;;52.03;21.92;;;12.50;99.90;;;;;;7720431;23;20106;-84
2022/04/26 05:58:43;;;;;;;43.72;21.52;;;12.40;99.90;;;;;;7734402;23;20052;-82
2022/04/26 06:06:15;;;;;;;43.45;21.30;;;12.50;99.90;;;;;;7668577;23;20028;-86
2022/04/26 06:09:41;;;;;;;44.28;21.52;;;12.50;99.90;;;;;;7702401;23;20021;-84
2022/04/26 06:20:04;;;;;;;35.45;19.67;;;12.80;99.90;;;;;;7575033;23;20085;-82
2022/04/26 06:23:06;;;;;;;33.65;18.67;;;12.90;99.90;;;;;;7573211;23;20018;-80
2022/04/26 06:26:08;;;;;;;33.00;19.13;;;12.90;99.90;;;;;;7572637;23;20027;-80
2022/04/26 06:29:11;;;;;;;31.98;18.67;;;13.10;99.90;;;;;;7575269;23;20026;-80
2022/04/26 06:32:13;;;;;;;25.90;16.40;;;13.40;99.90;;;;;;7573155;23;20029;-80
2022/04/26 06:35:14;;;;;;;21.33;14.00;;;13.70;99.90;;;;;;7572597;23;20101;-80
2022/04/26 06:38:17;;;;;;;26.15;15.77;;;13.70;99.90;;;;;;7572108;23;20026;-80
2022/04/26 06:41:18;;;;;;;19.13;12.68;;;13.60;99.90;;;;;;7571492;23;20384;-79
2022/04/26 06:44:22;;;;;;;19.98;12.38;;;14.20;99.90;;;;;;7572295;23;20026;-80
2022/04/26 06:47:23;;;;;;;13.85;10.57;;;15.00;99.90;;;;;;7571174;23;20415;-80
2022/04/26 06:50:25;;;;;;;14.43;10.70;;;15.30;99.90;;;;;;7571331;23;20105;-80
2022/04/26 06:53:27;;;;;;;14.23;10.65;;;16.10;99.90;;;;;;7571359;23;20029;-80
2022/04/26 06:56:29;;;;;;;13.63;10.27;;;17.10;99.80;;;;;;7571757;23;20086;-80
2022/04/26 06:59:33;;;;;;;18.73;9.95;;;18.00;96.50;;;;;;7571742;23;20022;-80
2022/04/26 07:02:35;;;;;;;11.38;7.78;;;18.60;95.20;;;;;;7574700;23;20422;-80
2022/04/26 07:05:36;;;;;;;11.38;8.60;;;19.90;93.20;;;;;;7571100;23;20029;-80
2022/04/26 07:08:38;;;;;;;10.25;7.95;;;21.20;87.30;;;;;;7569347;23;20093;-80
2022/04/26 07:11:42;;;;;;;9.90;7.90;;;22.30;85.10;;;;;;7572522;23;20107;-80
2022/04/26 07:14:45;;;;;;;10.95;8.40;;;23.70;80.30;;;;;;7572154;23;20022;-81
2022/04/26 07:17:47;;;;;;;13.65;7.65;;;23.50;76.70;;;;;;7573631;23;20346;-80
2022/04/26 07:20:49;;;;;;;10.70;8.13;;;22.50;76.50;;;;;;7610591;23;20028;-80
2022/04/26 07:23:50;;;;;;;9.65;7.72;;;21.40;77.80;;;;;;7611130;23;20041;-81
2022/04/26 07:26:54;;;;;;;10.18;8.25;;;20.60;80.60;;;;;;7609476;23;20022;-81
2022/04/26 07:29:57;;;;;;;12.48;9.50;;;19.70;80.90;;;;;;7609270;23;20017;-81
2022/04/26 07:36:19;;;;;;;12.98;8.45;;;20.60;82.30;;;;;;7606525;23;20021;-81
2022/04/26 07:39:22;;;;;;;9.90;8.02;;;21.90;77.10;;;;;;7607756;23;20045;-81
2022/04/26 07:42:24;;;;;;;10.68;7.65;;;23.90;72.70;;;;;;7609267;23;20026;-81
2022/04/26 07:45:27;;;;;;;10.15;7.95;;;25.60;65.90;;;;;;7609817;23;20057;-81
2022/04/26 07:48:29;;;;;;;8.75;7.85;;;26.70;60.60;;;;;;7605338;23;20022;-81
2022/04/26 07:51:32;;;;;;;10.32;8.07;;;25.90;58.90;;;;;;7606735;23;20664;-81
2022/04/26 07:54:35;;;;;;;10.05;7.88;;;23.90;62.50;;;;;;7608819;23;20120;-81
2022/04/26 07:57:37;;;;;;;12.90;8.15;;;22.20;66.70;;;;;;7607747;23;20358;-80
2022/04/26 08:00:40;;;;;;;11.63;7.78;;;21.30;71.70;;;;;;7608872;23;20561;-81
2022/04/26 08:03:41;;;;;;;7.72;6.43;;;23.10;70.60;;;;;;7607801;23;20102;-81
2022/04/26 08:06:44;;;;;;;7.45;6.07;;;25.30;65.80;;;;;;7607178;23;20057;-81
2022/04/26 08:09:45;;;;;;;6.45;5.78;;;26.50;59.80;;;;;;7606653;23;20018;-81
2022/04/26 08:12:47;;;;;;;8.60;5.82;;;25.90;57.50;;;;;;7606714;23;20386;-81
2022/04/26 08:15:50;;;;;;;11.27;6.15;;;24.60;58.40;;;;;;7607625;23;20024;-81
2022/04/26 08:18:52;;;;;;;9.02;5.32;;;23.90;59.90;;;;;;7606115;23;20120;-81
2022/04/26 08:21:54;;;;;;;8.73;5.75;;;23.30;61.40;;;;;;7607660;23;20450;-83
2022/04/26 08:28:15;;;;;;;10.35;6.35;;;26.30;54.30;;;;;;7605160;23;20088;-81
2022/04/26 08:31:18;;;;;;;12.52;5.70;;;25.90;52.90;;;;;;7607878;23;20030;-81
2022/04/26 08:34:19;;;;;;;9.50;5.22;;;25.70;55.60;;;;;;7608234;23;20104;-81
2022/04/26 08:37:23;;;;;;;7.93;4.35;;;27.00;54.40;;;;;;7606029;23;20029;-81
2022/04/26 08:40:26;;;;;;;5.85;4.45;;;27.10;48.40;;;;;;7606924;23;20497;-81
2022/04/26 08:43:33;;;;;;;6.32;5.03;;;25.50;50.60;;;;;;7607694;23;20043;-81
2022/04/26 08:53:16;;;;;;;8.75;5.20;;;24.80;55.10;;;;;;7607107;23;20025;-82
2022/04/26 08:56:20;;;;;;;9.05;4.85;;;24.00;55.30;;;;;;7605215;23;20096;-84
2022/04/26 08:59:22;;;;;;;7.53;5.60;;;22.90;57.00;;;;;;7604303;23;20053;-85
2022/04/26 09:02:25;;;;;;;6.60;4.28;;;23.00;58.10;;;;;;7605564;23;20022;-79
2022/04/26 09:05:27;;;;;;;6.50;5.15;;;24.30;56.90;;;;;;7605074;23;20358;-80
2022/04/26 09:08:29;;;;;;;5.65;4.78;;;25.60;53.40;;;;;;7604508;23;20017;-79
2022/04/26 09:11:34;;;;;;;7.05;4.75;;;25.10;50.60;;;;;;7604243;23;20029;-79
2022/04/26 09:14:38;;;;;;;5.75;4.97;;;23.70;51.50;;;;;;7604477;23;20474;-82
2022/04/26 09:17:41;;;;;;;7.03;5.25;;;22.20;54.30;;;;;;7605170;23;20021;-82
2022/04/26 09:20:44;;;;;;;10.85;5.40;;;21.20;58.30;;;;;;7604486;23;20072;-81
2022/04/26 09:23:47;;;;;;;6.70;5.03;;;20.40;60.50;;;;;;7605241;23;20024;-80
2022/04/26 09:26:49;;;;;;;6.47;5.07;;;20.40;63.10;;;;;;7608612;23;20096;-81
2022/04/26 09:29:51;;;;;;;9.07;5.05;;;22.00;59.00;;;;;;7607474;23;20114;-81
2022/04/26 09:32:54;;;;;;;7.05;4.88;;;23.10;54.00;;;;;;7607377;23;20022;-82
2022/04/26 09:36:00;;;;;;;5.28;3.83;;;24.10;52.10;;;;;;7606859;23;20021;-82
2022/04/26 09:39:11;;;;;;;3.75;2.20;;;24.50;52.90;;;;;;7606898;23;20026;-82
2022/04/26 09:42:13;;;;;;;8.95;3.03;;;23.80;50.50;;;;;;7620739;23;20018;-83
2022/04/26 09:45:16;;;;;;;4.10;3.08;;;22.50;54.70;;;;;;7608472;23;20029;-83
2022/04/26 09:48:27;;;;;;;9.13;3.63;;;21.10;61.50;;;;;;7609202;23;20029;-83
2022/04/26 09:51:29;;;;;;;13.15;5.70;;;20.20;64.70;;;;;;7609449;23;20606;-82
2022/04/26 09:54:32;;;;;;;7.28;5.20;;;19.70;68.00;;;;;;7609284;23;20033;-81
2022/04/26 09:57:35;;;;;;;10.18;5.35;;;19.60;72.30;;;;;;7608316;23;20022;-83
2022/04/26 10:00:39;;;;;;;8.45;5.38;;;19.80;70.80;;;;;;7611954;23;20041;-82
2022/04/26 10:03:45;;;;;;;9.00;5.80;;;19.90;67.50;;;;;;7617000;23;20029;-82
2022/04/26 10:06:50;;;;;;;8.88;5.85;;;20.10;69.10;;;;;;7609423;23;20354;-81
2022/04/26 10:09:52;;;;;;;10.02;6.60;;;20.30;66.80;;;;;;7609071;23;20099;-82
2022/04/26 10:16:19;;;;;;;10.10;6.45;;;20.70;66.70;;;;;;7609866;23;20026;-83
2022/04/26 10:19:36;;;;;;;11.77;6.72;;;21.20;66.20;;;;;;7610854;23;20375;-83
2022/04/26 10:22:57;;;;;;;10.10;6.57;;;21.50;62.90;;;;;;7609259;23;20026;-82
2022/04/26 10:26:23;;;;;;;6.82;4.90;;;21.60;62.80;;;;;;7572761;23;20025;-84
2022/04/26 10:29:26;;;;;;;9.13;5.82;;;22.00;61.10;;;;;;7571189;23;20026;-85
2022/04/26 10:32:31;;;;;;;7.75;5.28;;;22.30;60.40;;;;;;7573377;23;20026;-83
2022/04/26 10:35:36;;;;;;;6.22;4.68;;;22.60;59.90;;;;;;7577615;23;20485;-85
2022/04/26 10:38:38;;;;;;;7.88;5.32;;;23.10;58.80;;;;;;7575297;23;20019;-83
2022/04/26 10:41:41;;;;;;;5.22;3.60;;;23.40;56.10;;;;;;7574500;23;20023;-85
2022/04/26 10:44:44;;;;;;;4.47;2.60;;;22.80;55.90;;;;;;7575828;23;20026;-84
2022/04/26 10:47:45;;;;;;;2.47;1.77;;;21.90;56.60;;;;;;7577174;23;20070;-84
2022/04/26 10:58:52;;;;;;;4.43;2.55;;;18.40;70.60;;;;;;7584020;23;20018;-82
2022/04/26 11:01:55;;;;;;;6.15;2.70;;;17.70;73.60;;;;;;7576119;23;20074;-82
2022/04/26 11:04:59;;;;;;;4.05;2.72;;;17.50;76.20;;;;;;7568738;23;20105;-83
2022/04/26 11:08:03;;;;;;;4.32;2.97;;;17.80;76.80;;;;;;7571375;23;20026;-85
2022/04/26 11:11:11;;;;;;;4.53;3.00;;;18.10;76.10;;;;;;7579050;23;20018;-82
2022/04/26 11:14:14;;;;;;;4.57;3.35;;;18.40;76.40;;;;;;7612426;23;20022;-84
2022/04/26 11:17:17;;;;;;;7.10;3.25;;;18.60;75.50;;;;;;7610514;23;20026;-82
2022/04/26 11:20:20;;;;;;;4.72;3.10;;;18.60;75.00;;;;;;7576784;23;20101;-82
2022/04/26 11:30:14;;;;;;;5.75;3.53;;;19.30;74.00;;;;;;7572768;23;20023;-82
2022/04/26 11:33:18;;;;;;;3.90;3.00;;;19.80;74.00;;;;;;7572960;23;20033;-83
2022/04/26 11:36:20;;;;;;;2.65;1.98;;;20.00;71.80;;;;;;7577287;23;20022;-82
2022/04/26 11:39:22;;;;;;;3.10;1.75;;;20.20;71.10;;;;;;7573734;23;20018;-83
2022/04/26 11:42:25;;;;;;;2.03;1.73;;;20.40;68.80;;;;;;7574102;23;20106;-82
2022/04/26 11:45:29;;;;;;;4.03;2.33;;;20.80;68.10;;;;;;7570505;23;20026;-80
2022/04/26 11:48:33;;;;;;;2.92;2.20;;;21.00;65.80;;;;;;7571267;23;20026;-80
2022/04/26 11:51:35;;;;;;;2.55;1.50;;;21.40;66.80;;;;;;7571008;23;20054;-80
2022/04/26 11:54:37;;;;;;;2.97;1.83;;;21.80;62.90;;;;;;7570802;23;20022;-80
2022/04/26 11:57:39;;;;;;;3.47;1.38;;;22.00;63.60;;;;;;7570353;23;20101;-80
2022/04/26 12:00:54;;;;;;;1.75;1.30;;;22.20;59.90;;;;;;7568320;23;20022;-80
2022/04/26 12:03:57;;;;;;;3.40;1.77;;;22.00;62.20;;;;;;7568833;23;20024;-81
2022/04/26 12:07:00;;;;;;;3.85;1.40;;;21.70;65.70;;;;;;7570091;23;20463;-80
2022/04/26 12:10:02;;;;;;;1.85;1.10;;;20.90;66.60;;;;;;7569773;23;20477;-80
2022/04/26 12:13:05;;;;;;;5.03;1.17;;;20.10;72.20;;;;;;7570442;23;20084;-80
2022/04/26 12:16:21;;;;;;;2.70;1.65;;;19.60;74.80;;;;;;7576313;23;20026;-80
2022/04/26 12:19:34;;;;;;;4.20;1.95;;;19.20;76.20;;;;;;7609588;23;20020;-81
2022/04/26 12:22:37;;;;;;;3.10;1.90;;;19.00;76.80;;;;;;7684112;23;20036;-79
2022/04/26 12:25:39;;;;;;;2.20;1.83;;;18.80;77.60;;;;;;7682764;23;20017;-78
2022/04/26 12:28:48;;;;;;;3.60;1.92;;;18.70;77.60;;;;;;7675038;23;20566;-78
2022/04/26 12:31:52;;;;;;;3.55;1.55;;;18.70;76.50;;;;;;7645692;23;20049;-80
2022/04/26 12:34:56;;;;;;;3.53;1.80;;;18.90;74.30;;;;;;7644590;23;20100;-82
2022/04/26 12:38:08;;;;;;;2.13;1.50;;;19.00;74.50;;;;;;7656345;23;20074;-82
2022/04/26 12:41:10;;;;;;;2.88;1.50;;;19.10;72.00;;;;;;7643785;23;20373;-81
2022/04/26 12:44:12;;;;;;;2.30;1.52;;;19.30;71.70;;;;;;7643539;23;20045;-82
2022/04/26 12:50:35;;;;;;;2.53;1.48;;;20.00;69.70;;;;;;7656177;23;20081;-83
2022/04/26 12:53:37;;;;;;;4.68;1.65;;;20.30;68.60;;;;;;7643944;23;20100;-83
2022/04/26 12:56:40;;;;;;;2.78;1.33;;;20.50;67.10;;;;;;7644301;23;20032;-80
2022/04/26 12:59:41;;;;;;;2.38;1.48;;;20.40;64.90;;;;;;7644954;23;20049;-80
2022/04/26 13:02:45;;;;;;;3.33;1.92;;;20.30;67.40;;;;;;7647335;23;20022;-83
2022/04/26 13:05:48;;;;;;;2.90;1.75;;;20.60;66.10;;;;;;7610236;23;20102;-81
2022/04/26 13:08:51;;;;;;;6.05;1.73;;;21.00;66.00;;;;;;7609266;23;20053;-82
2022/04/26 13:11:55;;;;;;;1.35;1.08;;;21.40;61.10;;;;;;7610491;23;20603;-83
2022/04/26 13:14:57;;;;;;;3.53;1.45;;;21.50;58.20;;;;;;7609889;23;20022;-83
2022/04/26 13:18:01;;;;;;;3.50;1.83;;;21.70;59.00;;;;;;7610173;23;20050;-83
2022/04/26 13:21:03;;;;;;;2.72;1.08;;;22.10;58.00;;;;;;7609495;23;20026;-80
2022/04/26 13:24:05;;;;;;;3.17;1.60;;;22.50;55.20;;;;;;7613040;23;20081;-81
2022/04/26 13:27:07;;;;;;;1.75;1.27;;;22.40;55.50;;;;;;7614255;23;20078;-83
2022/04/26 13:30:09;;;;;;;1.95;1.17;;;22.20;56.10;;;;;;7610582;23;20108;-83
2022/04/26 13:33:13;;;;;;;3.40;1.73;;;22.00;56.30;;;;;;7610275;23;20132;-81
2022/04/26 13:36:15;;;;;;;6.50;4.28;;;21.70;56.70;;;;;;7610870;23;20022;-81
2022/04/26 13:39:17;;;;;;;13.88;8.02;;;21.20;56.50;;;;;;7609569;23;20018;-82
2022/04/26 13:42:19;;;;;;;6.68;3.20;;;20.20;60.30;;;;;;7612414;23;20026;-80
2022/04/26 13:45:21;;;;;;;19.58;12.98;;;18.90;64.80;;;;;;7619119;23;20393;-82
2022/04/26 13:48:24;;;;;;;7.25;6.00;;;17.70;71.30;;;;;;7609362;23;20387;-81
2022/04/26 13:51:29;;;;;;;6.57;4.40;;;16.70;76.10;;;;;;7608925;23;20022;-80
2022/04/26 13:54:31;;;;;;;12.48;8.90;;;15.90;83.00;;;;;;7609559;23;20048;-81
2022/04/26 13:57:32;;;;;;;6.28;3.83;;;15.30;88.90;;;;;;7609089;23;20051;-80
2022/04/26 14:00:36;;;;;;;15.63;3.42;;;14.80;90.90;;;;;;7607775;23;20022;-81
2022/04/26 14:03:39;;;;;;;23.52;15.45;;;14.40;94.80;;;;;;7608744;23;20057;-80
2022/04/26 14:06:41;;;;;;;7.00;3.95;;;14.10;96.70;;;;;;7607765;23;20025;-81
2022/04/26 14:09:43;;;;;;;4.45;2.80;;;13.90;97.70;;;;;;7607178;23;20029;-82
2022/04/26 14:12:45;;;;;;;7.45;4.85;;;13.90;98.70;;;;;;7608726;23;20036;-81
2022/04/26 14:22:30;;;;;;;4.70;2.85;;;14.30;98.10;;;;;;7658472;23;20022;-80
2022/04/26 14:25:32;;;;;;;3.25;2.30;;;14.40;96.50;;;;;;7644851;23;20025;-80
2022/04/26 14:28:34;;;;;;;3.95;2.53;;;14.50;96.20;;;;;;7645056;23;20524;-82
2022/04/26 14:31:36;;;;;;;5.05;2.35;;;14.70;96.20;;;;;;7645769;23;20076;-79
2022/04/26 14:34:39;;;;;;;3.75;2.22;;;14.80;95.10;;;;;;7645666;23;20025;-82
2022/04/26 14:37:41;;;;;;;2.90;1.45;;;15.10;94.90;;;;;;7645267;23;20085;-80
2022/04/26 14:40:43;;;;;;;4.22;1.60;;;15.30;94.30;;;;;;7648719;23;20041;-81
2022/04/26 14:43:45;;;;;;;2.97;1.30;;;15.60;94.70;;;;;;7644607;23;20043;-82
2022/04/26 14:46:47;;;;;;;3.92;1.25;;;15.90;94.50;;;;;;7644810;23;20100;-82
2022/04/26 14:49:51;;;;;;;3.53;1.75;;;16.30;93.40;;;;;;7645772;23;20025;-82
2022/04/26 14:52:53;;;;;;;3.30;2.00;;;16.50;92.30;;;;;;7645945;23;20041;-81
2022/04/26 14:55:54;;;;;;;3.42;2.05;;;16.70;91.30;;;;;;7645307;23;20044;-83
2022/04/26 14:59:00;;;;;;;4.35;2.17;;;16.70;90.50;;;;;;7643663;23;20037;-78
2022/04/26 15:02:01;;;;;;;2.80;1.88;;;16.60;90.30;;;;;;7660317;23;20024;-82
2022/04/26 15:05:07;;;;;;;3.70;1.95;;;16.60;90.80;;;;;;7645033;23;20045;-82
2022/04/26 15:11:28;;;;;;;2.17;1.20;;;16.80;90.60;;;;;;7644807;23;20018;-81
2022/04/26 15:17:49;;;;;;;3.10;1.90;;;17.40;87.70;;;;;;7650258;23;20021;-82
2022/04/26 15:20:52;;;;;;;3.05;1.65;;;17.70;88.40;;;;;;7649957;23;20121;-82
2022/04/26 15:23:54;;;;;;;3.28;1.13;;;17.80;85.80;;;;;;7650499;23;20088;-82
2022/04/26 15:26:56;;;;;;;1.70;1.27;;;17.80;84.10;;;;;;7649350;23;20125;-81
2022/04/26 15:29:58;;;;;;;7.68;1.52;;;17.30;82.60;;;;;;7646364;23;20017;-82
2022/04/26 15:33:00;;;;;;;1.90;1.25;;;16.90;84.70;;;;;;7647318;23;20021;-83
2022/04/26 15:36:03;;;;;;;6.18;1.38;;;16.50;86.60;;;;;;7647342;23;20376;-80
2022/04/26 15:39:05;;;;;;;4.18;1.48;;;16.50;89.80;;;;;;7659323;23;20021;-81
2022/04/26 15:42:07;;;;;;;5.68;2.38;;;16.40;90.20;;;;;;7658021;23;20032;-80
2022/04/26 15:45:09;;;;;;;3.08;1.88;;;16.30;88.70;;;;;;7645239;23;20022;-83
2022/04/26 15:48:10;;;;;;;2.80;1.80;;;16.00;90.00;;;;;;7644568;23;20073;-80
2022/04/26 15:51:14;;;;;;;2.95;2.08;;;15.90;90.40;;;;;;7645230;23;20018;-80
2022/04/26 15:54:16;;;;;;;3.75;1.95;;;15.70;90.30;;;;;;7645472;23;20100;-80
2022/04/26 15:57:18;;;;;;;3.50;1.70;;;15.50;90.60;;;;;;7643748;23;20357;-82
2022/04/26 16:00:20;;;;;;;5.20;1.65;;;15.40;90.60;;;;;;7643584;23;20021;-82
2022/04/26 16:03:22;;;;;;;2.38;1.20;;;15.30;90.90;;;;;;7611726;23;20045;-79
2022/04/26 16:06:25;;;;;;;2.22;1.58;;;15.30;91.20;;;;;;7609508;23;20045;-80
2022/04/26 16:22:46;;;;;;;4.85;1.75;;;15.20;93.10;;;;;;7644094;23;20057;-80
2022/04/26 16:25:48;;;;;;;5.53;1.83;;;14.90;93.80;;;;;;7644892;23;20034;-81
2022/04/26 16:28:51;;;;;;;3.83;2.92;;;14.70;94.00;;;;;;7643883;23;20114;-80
2022/04/26 16:31:53;;;;;;;5.95;3.28;;;14.60;94.70;;;;;;7644896;23;20021;-81
2022/04/26 16:34:57;;;;;;;2.78;2.08;;;14.50;94.90;;;;;;7644264;23;20401;-80
2022/04/26 16:38:01;;;;;;;4.55;2.03;;;14.30;94.60;;;;;;7644266;23;20100;-80
2022/04/26 16:41:04;;;;;;;6.07;3.20;;;14.00;94.70;;;;;;7644586;23;20024;-82
2022/04/26 16:44:07;;;;;;;3.70;1.90;;;13.70;95.20;;;;;;7645020;23;20028;-82
2022/04/26 16:47:10;;;;;;;5.40;2.00;;;13.40;95.20;;;;;;7643871;23;20535;-81
2022/04/26 16:50:12;;;;;;;5.18;1.58;;;13.10;95.40;;;;;;7645135;23;20025;-78
2022/04/26 16:53:16;;;;;;;5.35;1.95;;;12.90;95.80;;;;;;7643607;23;20009;-79
2022/04/26 16:56:18;;;;;;;2.15;1.45;;;12.80;96.10;;;;;;7641898;23;20022;-80
2022/04/26 16:59:20;;;;;;;2.83;1.40;;;12.50;95.80;;;;;;7645713;23;20025;-82
2022/04/26 17:02:22;;;;;;;4.70;2.10;;;12.40;96.50;;;;;;7654862;23;20029;-78
2022/04/26 17:05:24;;;;;;;3.03;1.98;;;12.20;97.10;;;;;;7643164;23;20094;-80
2022/04/26 17:08:27;;;;;;;7.63;2.80;;;12.10;97.00;;;;;;7642635;23;20045;-85
2022/04/26 17:11:44;;;;;;;4.60;1.63;;;12.00;97.30;;;;;;7642842;23;20045;-80
2022/04/26 17:14:46;;;;;;;3.60;2.20;;;11.90;97.40;;;;;;7643639;23;20101;-80
2022/04/26 17:17:49;;;;;;;6.13;2.05;;;11.80;98.00;;;;;;7643611;23;20036;-81
2022/04/26 17:20:51;;;;;;;4.88;1.55;;;11.90;98.20;;;;;;7643587;23;20018;-79
2022/04/26 17:23:54;;;;;;;2.85;2.17;;;11.90;98.20;;;;;;7643335;23;20043;-80
2022/04/26 17:26:57;;;;;;;3.45;1.70;;;11.90;98.20;;;;;;7644246;23;20710;-78
2022/04/26 17:29:58;;;;;;;3.78;2.05;;;11.90;98.20;;;;;;7644539;23;20025;-79
2022/04/26 17:33:00;;;;;;;5.15;2.15;;;11.80;98.20;;;;;;7644217;23;20085;-81
2022/04/26 17:36:02;;;;;;;4.47;2.05;;;11.70;98.60;;;;;;7644793;23;20395;-79
2022/04/26 17:39:06;;;;;;;4.65;2.53;;;11.60;98.80;;;;;;7643463;23;20030;-82
2022/04/26 17:42:08;;;;;;;3.42;1.50;;;11.50;98.80;;;;;;7643477;23;20353;-79
2022/04/26 17:45:10;;;;;;;3.42;1.90;;;11.50;98.90;;;;;;7644581;23;20049;-81
2022/04/26 17:48:12;;;;;;;3.75;2.03;;;11.50;98.70;;;;;;7651874;23;20025;-81
2022/04/26 17:51:14;;;;;;;4.18;2.30;;;11.40;98.80;;;;;;7655231;23;20121;-80
2022/04/26 17:57:36;;;;;;;5.60;2.17;;;11.40;99.10;;;;;;7645596;23;20025;-79
2022/04/26 18:00:38;;;;;;;3.08;1.98;;;11.40;99.00;;;;;;7646282;23;20076;-79
2022/04/26 18:03:40;;;;;;;5.53;2.05;;;11.50;99.10;;;;;;7645557;23;20465;-78
2022/04/26 18:06:42;;;;;;;5.53;2.30;;;11.50;99.30;;;;;;7646480;23;20067;-80
2022/04/26 18:09:45;;;;;;;4.40;2.25;;;11.50;99.20;;;;;;7645553;23;20073;-81
2022/04/26 18:12:49;;;;;;;3.97;2.35;;;11.60;99.10;;;;;;7644477;23;20021;-79
2022/04/26 18:15:54;;;;;;;3.20;2.15;;;11.50;99.20;;;;;;7645668;23;20041;-81
2022/04/26 18:19:03;;;;;;;8.70;2.95;;;11.60;99.30;;;;;;7645252;23;20030;-80
2022/04/26 18:22:05;;;;;;;4.72;2.42;;;11.60;99.30;;;;;;7612760;23;20017;-83
2022/04/26 18:25:08;;;;;;;4.63;2.63;;;11.60;99.30;;;;;;7584440;23;20022;-82
2022/04/26 18:28:40;;;;;;;7.28;2.72;;;11.60;99.40;;;;;;7579171;23;20046;-84
2022/04/26 18:31:43;;;;;;;9.10;2.53;;;11.60;99.30;;;;;;7591421;23;20085;-85
2022/04/26 18:34:45;;;;;;;3.90;2.22;;;11.60;99.30;;;;;;7585367;23;20062;-84
2022/04/26 18:37:47;;;;;;;5.97;2.60;;;11.60;99.20;;;;;;7630331;23;20029;-85
2022/04/26 18:40:51;;;;;;;5.95;2.60;;;11.60;99.20;;;;;;7614471;23;20022;-85
2022/04/26 18:43:53;;;;;;;5.20;3.38;;;11.60;99.30;;;;;;7621382;23;20093;-85
2022/04/26 18:46:55;;;;;;;5.85;2.97;;;11.60;99.30;;;;;;7611894;23;20022;-84
2022/04/26 18:49:57;;;;;;;5.43;2.42;;;11.60;99.30;;;;;;7590873;23;20018;-85
2022/04/26 18:53:14;;;;;;;5.95;2.80;;;11.60;99.10;;;;;;7577641;23;20497;-85
2022/04/26 18:56:17;;;;;;;7.05;3.13;;;11.70;99.10;;;;;;7576834;23;20022;-85
2022/04/26 18:59:20;;;;;;;5.13;3.05;;;11.60;99.00;;;;;;7575783;23;20113;-85
2022/04/26 19:06:17;;;;;;;5.13;2.97;;;11.60;99.10;;;;;;7550594;23;20018;-87
2022/04/26 19:09:25;;;;;;;7.60;4.03;;;11.70;99.20;;;;;;7573838;23;20093;-86
2022/04/26 19:16:01;;;;;;;9.25;5.32;;;11.70;99.30;;;;;;7583492;23;20034;-84
2022/04/26 19:19:03;;;;;;;11.70;6.88;;;11.70;99.20;;;;;;7578332;23;20027;-84
2022/04/26 19:22:05;;;;;;;9.65;5.57;;;11.60;99.30;;;;;;7576405;23;20101;-84
2022/04/26 19:25:07;;;;;;;9.20;4.63;;;11.70;99.50;;;;;;7608016;23;20022;-84
2022/04/26 19:28:10;;;;;;;11.02;6.07;;;11.70;99.30;;;;;;7603795;23;20030;-84
2022/04/26 19:31:24;;;;;;;12.15;5.32;;;11.70;99.40;;;;;;7589287;23;20054;-85
2022/04/26 19:34:29;;;;;;;9.52;5.75;;;11.70;99.50;;;;;;7539270;23;20050;-85
2022/04/26 19:37:31;;;;;;;9.07;5.38;;;11.70;99.60;;;;;;7579775;23;20058;-85
2022/04/26 19:44:01;;;;;;;10.25;5.57;;;11.90;99.60;;;;;;7578077;23;20353;-85
2022/04/26 19:47:04;;;;;;;9.43;6.10;;;11.90;99.50;;;;;;7590488;23;20482;-85
2022/04/26 19:53:35;;;;;;;10.23;5.90;;;12.00;99.40;;;;;;7573521;23;20471;-85
2022/04/26 19:56:46;;;;;;;9.90;5.20;;;12.10;99.40;;;;;;7578684;23;20071;-86
2022/04/26 19:59:52;;;;;;;9.70;5.78;;;12.00;99.30;;;;;;7538797;23;20518;-84
2022/04/26 20:02:54;;;;;;;10.43;5.82;;;12.00;99.40;;;;;;7551972;23;20018;-85
2022/04/26 20:05:57;;;;;;;11.80;6.22;;;12.00;99.40;;;;;;7589744;23;20053;-84
2022/04/26 20:09:06;;;;;;;16.80;6.18;;;12.00;99.40;;;;;;7578861;23;20462;-86
2022/04/26 20:12:13;;;;;;;13.20;5.93;;;12.00;99.40;;;;;;7548409;23;20378;-85
2022/04/26 20:15:16;;;;;;;14.60;8.02;;;11.90;99.40;;;;;;7562632;23;20026;-85
2022/04/26 20:18:18;;;;;;;10.20;5.28;;;11.90;99.40;;;;;;7568738;23;20458;-86
2022/04/26 20:21:20;;;;;;;11.52;6.15;;;11.90;99.40;;;;;;7570854;23;20105;-85
2022/04/26 20:24:24;;;;;;;8.07;5.13;;;11.90;99.50;;;;;;7589551;23;20021;-87
2022/04/26 20:30:47;;;;;;;7.32;4.13;;;12.00;99.50;;;;;;7569890;23;20026;-84
2022/04/26 20:33:48;;;;;;;5.30;3.33;;;12.00;99.40;;;;;;7568205;23;20052;-85
2022/04/26 20:36:51;;;;;;;7.07;2.88;;;12.00;99.40;;;;;;7568195;23;20097;-85
2022/04/26 20:39:53;;;;;;;7.45;4.78;;;12.10;99.30;;;;;;7567161;23;20026;-85
2022/04/26 20:42:57;;;;;;;8.32;5.10;;;12.10;99.20;;;;;;7567842;23;20029;-85
2022/04/26 20:46:00;;;;;;;7.63;4.07;;;12.10;99.30;;;;;;7568506;23;20093;-85
2022/04/26 20:49:02;;;;;;;8.15;5.20;;;12.10;99.50;;;;;;7567401;23;20097;-84
2022/04/26 20:52:05;;;;;;;8.57;4.32;;;12.10;99.20;;;;;;7567454;23;20478;-84
2022/04/26 20:55:08;;;;;;;7.70;3.75;;;12.20;99.30;;;;;;7569414;23;20006;-84
2022/04/26 20:58:09;;;;;;;7.80;3.83;;;12.10;98.80;;;;;;7568765;23;20074;-84
2022/04/26 21:01:13;;;;;;;6.35;3.65;;;12.00;98.90;;;;;;7568381;23;20094;-84
2022/04/26 21:04:15;;;;;;;5.00;3.30;;;11.90;99.00;;;;;;7568358;23;20026;-85
2022/04/26 21:07:17;;;;;;;4.75;2.90;;;12.00;98.90;;;;;;7578396;23;20038;-84
2022/04/26 21:10:19;;;;;;;6.30;3.13;;;11.90;98.90;;;;;;7569170;23;20026;-84
2022/04/26 21:13:23;;;;;;;6.68;3.25;;;11.90;99.00;;;;;;7568802;23;20026;-84
2022/04/26 21:16:26;;;;;;;3.88;2.90;;;11.90;98.90;;;;;;7567847;23;20093;-84
2022/04/26 21:19:28;;;;;;;8.07;4.50;;;11.90;98.90;;;;;;7568387;23;20026;-84
2022/04/26 21:22:30;;;;;;;5.80;4.07;;;11.80;99.00;;;;;;7571353;23;20510;-85
2022/04/26 21:25:32;;;;;;;9.48;4.03;;;11.80;99.10;;;;;;7605243;23;20688;-84
2022/04/26 21:28:34;;;;;;;7.50;4.68;;;11.90;99.10;;;;;;7584694;23;20049;-84
2022/04/26 21:31:38;;;;;;;7.80;4.40;;;11.80;99.00;;;;;;7572964;23;20042;-86
2022/04/26 21:34:39;;;;;;;7.38;4.68;;;11.80;99.00;;;;;;7569482;23;20105;-85
2022/04/26 21:37:41;;;;;;;9.52;4.95;;;11.80;99.00;;;;;;7507790;23;20110;-85
2022/04/26 21:40:43;;;;;;;10.80;5.45;;;11.70;99.00;;;;;;7570992;23;20029;-84
2022/04/26 21:43:45;;;;;;;7.53;5.18;;;11.70;99.00;;;;;;7569526;23;20093;-84
2022/04/26 21:46:48;;;;;;;11.90;6.22;;;11.70;99.00;;;;;;7569860;23;20054;-84
2022/04/26 21:53:09;;;;;;;10.27;6.10;;;11.70;98.90;;;;;;7571590;23;20403;-84
2022/04/26 21:56:11;;;;;;;9.80;5.72;;;11.60;99.00;;;;;;7569366;23;20027;-83
2022/04/26 21:59:13;;;;;;;10.88;6.00;;;11.60;99.10;;;;;;7568726;23;20018;-84
2022/04/26 22:02:16;;;;;;;10.30;5.70;;;11.50;99.00;;;;;;7583290;23;20109;-84
2022/04/26 22:05:18;;;;;;;9.25;5.55;;;11.50;99.30;;;;;;7572609;23;20030;-84
2022/04/26 22:08:20;;;;;;;11.77;5.53;;;11.50;99.30;;;;;;7569242;23;20018;-83